Time;durP1;ratioP1;P1;durP2;ratioP2;P2;SDS_P1;SDS_P2;PMS_P1;PMS_P2;Temp;Humidity;BMP_temperature;BMP_pressure;BME280_temperature;BME280_humidity;BME280_pressure;Samples;Min_cycle;Max_cycle;Signal;HPM_P1;HPM_P2
2022/08/24 00:00:28;;;;;;;8.40;7.70;;;20.10;99.90;;;;;;2617526;46;20446;-83
2022/08/24 00:06:20;;;;;;;8.10;7.50;;;20.10;99.90;;;;;;2617171;54;20511;-83
2022/08/24 00:12:08;;;;;;;10.17;8.70;;;20.10;99.90;;;;;;2616996;54;20919;-83
2022/08/24 00:17:55;;;;;;;11.90;10.07;;;19.90;99.90;;;;;;2617224;54;20404;-84
2022/08/24 00:21:06;;;;;;;11.80;7.90;;;19.90;99.90;;;;;;2617040;54;20376;-83
2022/08/24 00:23:33;;;;;;;9.37;8.67;;;19.90;99.90;;;;;;2617014;54;20236;-83
2022/08/24 00:29:21;;;;;;;7.83;7.03;;;19.70;99.90;;;;;;2616596;54;20963;-76
2022/08/24 00:35:09;;;;;;;11.10;7.90;;;19.50;99.90;;;;;;2616850;46;20527;-79
2022/08/24 00:40:57;;;;;;;8.73;7.93;;;19.40;99.90;;;;;;2616307;54;20396;-80
2022/08/24 00:44:00;;;;;;;8.90;8.10;;;19.40;99.90;;;;;;2616391;54;20949;-77
2022/08/24 00:53:03;;;;;;;8.97;8.13;;;19.40;99.90;;;;;;2616428;54;20411;-78
2022/08/24 00:58:56;;;;;;;12.63;9.37;;;19.50;99.90;;;;;;2616346;54;20404;-79
2022/08/24 01:11:20;;;;;;;10.70;9.70;;;19.40;99.90;;;;;;2618090;54;21055;-86
2022/08/24 01:26:46;;;;;;;9.43;8.63;;;19.20;99.90;;;;;;2616773;54;20403;-78
2022/08/24 01:32:35;;;;;;;9.23;7.80;;;19.20;99.90;;;;;;2617024;54;20405;-78
2022/08/24 01:38:23;;;;;;;8.67;7.83;;;19.00;99.90;;;;;;2616943;54;20380;-78
2022/08/24 01:44:12;;;;;;;9.57;8.77;;;18.80;99.90;;;;;;2616979;54;20952;-79
2022/08/24 01:50:01;;;;;;;10.47;8.47;;;18.90;99.90;;;;;;2616816;54;20355;-78
2022/08/24 01:55:49;;;;;;;9.77;8.63;;;18.70;99.90;;;;;;2617140;54;20408;-79
2022/08/24 02:01:41;;;;;;;11.47;10.43;;;18.70;99.90;;;;;;2616692;54;20387;-79
2022/08/24 02:07:31;;;;;;;12.90;9.47;;;18.70;99.90;;;;;;2617018;54;20372;-77
2022/08/24 02:13:19;;;;;;;9.87;9.07;;;18.70;99.90;;;;;;2616715;54;20461;-78
2022/08/24 02:19:07;;;;;;;9.73;8.73;;;18.50;99.90;;;;;;2617346;39;20555;-78
2022/08/24 02:21:52;;;;;;;9.63;8.80;;;18.70;99.90;;;;;;2616180;54;20430;-77
2022/08/24 02:24:18;;;;;;;10.03;9.07;;;18.60;99.90;;;;;;2616817;54;20147;-78
2022/08/24 02:30:07;;;;;;;15.87;10.77;;;18.60;99.90;;;;;;2617389;39;20248;-80
2022/08/24 02:35:54;;;;;;;9.50;8.80;;;18.60;99.90;;;;;;2616786;54;20404;-79
2022/08/24 02:41:42;;;;;;;10.00;9.10;;;18.40;99.90;;;;;;2617008;54;20650;-78
2022/08/24 02:47:30;;;;;;;9.00;8.30;;;18.30;99.90;;;;;;2617173;39;20549;-78
2022/08/24 02:53:20;;;;;;;10.50;9.50;;;18.20;99.90;;;;;;2616868;54;20386;-78
2022/08/24 02:59:08;;;;;;;9.40;8.60;;;18.10;99.90;;;;;;2616688;54;20372;-77
2022/08/24 03:04:56;;;;;;;10.90;9.80;;;18.10;99.90;;;;;;2617629;54;20710;-85
2022/08/24 03:10:43;;;;;;;9.97;9.00;;;18.10;99.90;;;;;;2617777;54;20133;-86
2022/08/24 03:16:31;;;;;;;10.13;9.30;;;18.00;99.90;;;;;;2618069;31;20615;-86
2022/08/24 03:26:19;;;;;;;10.37;9.37;;;17.90;99.90;;;;;;2617463;54;20382;-86
2022/08/24 03:32:07;;;;;;;10.27;9.37;;;17.80;99.90;;;;;;2616928;54;20555;-79
2022/08/24 03:37:54;;;;;;;10.20;9.30;;;17.80;99.90;;;;;;2616827;39;20831;-79
2022/08/24 03:43:45;;;;;;;11.23;8.77;;;17.80;99.90;;;;;;2616275;46;20153;-79
2022/08/24 03:49:32;;;;;;;11.27;10.07;;;17.80;99.90;;;;;;2616722;54;20419;-80
2022/08/24 03:55:22;;;;;;;10.30;9.40;;;17.70;99.90;;;;;;2616328;54;20823;-79
2022/08/24 04:01:10;;;;;;;10.47;9.47;;;17.50;99.90;;;;;;2616428;54;20416;-78
2022/08/24 04:06:58;;;;;;;10.57;9.63;;;17.50;99.90;;;;;;2616282;54;20406;-79
2022/08/24 04:12:46;;;;;;;9.93;9.20;;;17.50;99.90;;;;;;2616668;54;20391;-82
2022/08/24 04:18:34;;;;;;;10.43;9.43;;;17.50;99.90;;;;;;2616666;54;20160;-83
2022/08/24 04:24:36;;;;;;;10.17;9.43;;;17.40;99.90;;;;;;2614955;54;20385;-83
2022/08/24 04:30:24;;;;;;;11.23;10.33;;;17.40;99.90;;;;;;2615042;54;20410;-83
2022/08/24 04:36:11;;;;;;;10.57;9.70;;;17.50;99.90;;;;;;2614754;54;20154;-82
2022/08/24 04:41:58;;;;;;;11.43;10.33;;;17.70;99.90;;;;;;2614986;54;20138;-83
2022/08/24 04:47:46;;;;;;;10.10;9.30;;;17.70;99.90;;;;;;2615623;39;20963;-81
2022/08/24 04:53:34;;;;;;;10.30;9.33;;;17.60;99.90;;;;;;2614987;54;20173;-83
2022/08/24 04:59:22;;;;;;;11.03;9.73;;;17.60;99.90;;;;;;2615177;54;20406;-85
2022/08/24 05:05:11;;;;;;;11.00;10.00;;;17.80;99.90;;;;;;2617419;39;20530;-86
2022/08/24 05:11:05;;;;;;;10.33;9.30;;;18.10;99.90;;;;;;2617031;54;20386;-88
2022/08/24 05:16:53;;;;;;;11.03;10.00;;;18.30;99.90;;;;;;2617271;54;20938;-85
2022/08/24 05:26:26;;;;;;;11.60;8.90;;;18.40;99.90;;;;;;2617022;54;20397;-86
2022/08/24 05:32:16;;;;;;;9.87;8.90;;;19.20;99.90;;;;;;2617168;54;20391;-83
2022/08/24 05:38:05;;;;;;;9.50;8.50;;;20.90;99.90;;;;;;2616869;54;20411;-85
2022/08/24 05:43:53;;;;;;;12.73;9.23;;;21.90;99.90;;;;;;2616406;54;20435;-88
2022/08/24 05:49:42;;;;;;;14.50;8.87;;;22.60;99.90;;;;;;2618340;54;20403;-86
2022/08/24 05:55:29;;;;;;;13.33;8.37;;;22.70;99.90;;;;;;2618413;54;20384;-86
2022/08/24 06:01:20;;;;;;;9.03;7.83;;;22.80;91.90;;;;;;2618762;54;20126;-84
2022/08/24 06:07:09;;;;;;;8.90;7.40;;;22.70;90.40;;;;;;2618467;54;20431;-87
2022/08/24 06:12:57;;;;;;;9.80;7.30;;;22.10;95.70;;;;;;2616860;54;20419;-81
2022/08/24 06:18:44;;;;;;;7.90;7.20;;;22.40;99.90;;;;;;2617044;54;20138;-82
2022/08/24 06:21:49;;;;;;;12.10;6.80;;;22.80;95.90;;;;;;2617396;54;20423;-82
2022/08/24 06:27:55;;;;;;;8.97;7.17;;;22.30;99.90;;;;;;2616769;54;20407;-83
2022/08/24 06:33:43;;;;;;;12.70;7.80;;;21.60;99.90;;;;;;2616476;54;20403;-83
2022/08/24 06:39:31;;;;;;;8.27;7.40;;;21.30;99.90;;;;;;2616821;54;20395;-81
2022/08/24 06:45:20;;;;;;;8.33;7.40;;;21.20;99.90;;;;;;2616638;54;20214;-81
2022/08/24 06:51:17;;;;;;;8.10;7.50;;;21.40;99.90;;;;;;2616814;54;20447;-83
2022/08/24 06:57:05;;;;;;;13.13;7.57;;;21.80;99.90;;;;;;2616269;54;20383;-82
2022/08/24 07:02:53;;;;;;;8.80;7.90;;;22.80;99.90;;;;;;2617044;54;20480;-83
2022/08/24 07:08:42;;;;;;;7.60;7.10;;;24.50;68.10;;;;;;2616781;54;20131;-82
2022/08/24 07:14:30;;;;;;;8.40;7.63;;;25.90;33.90;;;;;;2616450;54;20497;-83
2022/08/24 07:20:17;;;;;;;9.73;7.60;;;25.70;25.90;;;;;;2616748;54;20361;-83
2022/08/24 07:23:21;;;;;;;9.87;8.97;;;25.50;26.00;;;;;;2616286;54;20405;-83
2022/08/24 07:29:27;;;;;;;9.70;7.97;;;25.10;33.20;;;;;;2616503;54;20416;-84
2022/08/24 07:35:15;;;;;;;8.93;8.03;;;24.40;31.60;;;;;;2616115;54;20383;-77
2022/08/24 07:41:03;;;;;;;9.80;8.50;;;24.10;30.50;;;;;;2616048;54;20128;-78
2022/08/24 07:46:51;;;;;;;12.47;8.13;;;24.70;31.20;;;;;;2615931;54;20286;-77
2022/08/24 07:52:40;;;;;;;10.00;8.40;;;25.70;19.80;;;;;;2616204;54;20120;-77
2022/08/24 07:58:28;;;;;;;11.73;7.73;;;25.90;16.80;;;;;;2616193;54;20397;-76
2022/08/24 08:04:20;;;;;;;8.90;8.00;;;26.50;23.40;;;;;;2616418;39;20755;-77
2022/08/24 08:10:10;;;;;;;9.03;7.37;;;26.40;18.70;;;;;;2616078;54;20399;-76
2022/08/24 08:15:58;;;;;;;7.53;6.93;;;26.60;18.50;;;;;;2616313;54;20980;-78
2022/08/24 08:24:55;;;;;;;10.53;7.33;;;28.30;8.60;;;;;;2615984;54;20430;-75
2022/08/24 08:27:21;;;;;;;10.40;7.80;;;28.50;6.90;;;;;;2616279;54;20533;-77
2022/08/24 08:33:09;;;;;;;8.03;7.33;;;29.40;4.50;;;;;;2616151;54;20302;-76
2022/08/24 08:38:56;;;;;;;8.53;7.50;;;28.40;2.10;;;;;;2616335;54;20130;-78
2022/08/24 09:08:56;;;;;;;7.70;7.00;;;28.20;2.40;;;;;;2614371;54;20391;-77
2022/08/24 09:15:20;;;;;;;8.23;7.43;;;29.30;1.40;;;;;;2613994;54;20374;-77
2022/08/24 09:38:27;;;;;;;7.60;7.13;;;31.10;1.00;;;;;;2614757;54;20403;-77
2022/08/24 09:51:10;;;;;;;9.60;7.20;;;31.30;1.00;;;;;;2614998;54;20953;-77
2022/08/24 10:10:19;;;;;;;8.67;6.20;;;33.00;1.00;;;;;;2614978;54;20419;-76
2022/08/24 10:22:49;;;;;;;8.03;7.30;;;32.90;1.00;;;;;;2616175;54;20391;-77
2022/08/24 10:28:58;;;;;;;6.40;6.00;;;32.90;1.00;;;;;;2616781;39;20510;-77
2022/08/24 10:45:45;;;;;;;6.87;5.97;;;33.50;1.00;;;;;;2614873;47;20452;-78
2022/08/24 11:29:17;;;;;;;6.97;6.33;;;34.00;1.00;;;;;;2615013;54;20479;-77
2022/08/24 11:35:19;;;;;;;9.13;6.60;;;34.30;1.00;;;;;;2614990;54;20960;-83
2022/08/24 11:45:07;;;;;;;6.27;5.60;;;34.60;1.00;;;;;;2614923;54;20446;-82
2022/08/24 12:17:11;;;;;;;6.50;5.90;;;35.30;1.00;;;;;;2616668;54;20363;-84
2022/08/24 12:32:49;;;;;;;6.97;6.23;;;34.40;1.00;;;;;;2615892;46;20459;-84
2022/08/24 12:38:44;;;;;;;7.40;6.80;;;33.60;1.00;;;;;;2617715;54;20406;-84
2022/08/24 12:57:21;;;;;;;6.83;6.17;;;34.40;1.00;;;;;;2618546;54;20399;-84
2022/08/24 13:23:04;;;;;;;6.60;6.00;;;34.80;1.00;;;;;;2616230;39;20773;-83
2022/08/24 13:38:34;;;;;;;9.63;7.00;;;33.40;1.00;;;;;;2615834;54;20416;-77
2022/08/24 14:04:23;;;;;;;7.77;7.10;;;34.20;1.00;;;;;;2615926;54;20391;-76
2022/08/24 14:32:58;;;;;;;7.27;6.57;;;36.00;1.00;;;;;;2616494;54;20417;-78
2022/08/24 14:38:56;;;;;;;7.73;6.80;;;35.30;1.00;;;;;;2616615;54;20122;-82
2022/08/24 15:04:47;;;;;;;6.80;6.40;;;37.30;1.00;;;;;;2616435;54;20504;-83
2022/08/24 15:17:12;;;;;;;6.83;6.20;;;37.50;1.00;;;;;;2616558;54;20419;-83
2022/08/24 15:39:25;;;;;;;7.63;6.00;;;37.60;1.00;;;;;;2615377;54;21100;-83
2022/08/24 15:45:13;;;;;;;7.27;6.77;;;35.70;1.00;;;;;;2615189;54;20947;-84
2022/08/24 15:51:00;;;;;;;6.90;6.40;;;37.40;1.00;;;;;;2615443;39;20859;-83
2022/08/24 15:56:54;;;;;;;7.50;6.50;;;37.90;1.00;;;;;;2615175;54;20168;-84
2022/08/24 16:02:42;;;;;;;7.70;6.80;;;34.00;1.00;;;;;;2615827;54;20386;-83
2022/08/24 16:15:18;;;;;;;7.07;6.43;;;35.40;1.00;;;;;;2617965;54;20407;-88
2022/08/24 16:28:02;;;;;;;6.60;6.10;;;36.20;1.00;;;;;;2617614;54;20386;-86
2022/08/24 16:33:50;;;;;;;7.60;6.83;;;36.40;1.00;;;;;;2618877;54;20413;-85
2022/08/24 16:39:37;;;;;;;7.80;6.97;;;36.80;1.00;;;;;;2617861;54;20124;-86
2022/08/24 16:45:25;;;;;;;7.20;6.70;;;37.30;1.00;;;;;;2618181;54;20169;-87
2022/08/24 16:51:13;;;;;;;7.50;6.90;;;36.70;1.00;;;;;;2617863;54;20122;-87
2022/08/24 17:03:32;;;;;;;8.03;6.97;;;35.60;1.00;;;;;;2619065;54;20521;-86
2022/08/24 17:09:21;;;;;;;7.83;7.23;;;33.30;1.00;;;;;;2618249;54;20408;-85
2022/08/24 17:15:11;;;;;;;7.43;6.90;;;31.90;1.00;;;;;;2619132;54;20387;-88
2022/08/24 17:21:00;;;;;;;7.40;6.80;;;31.70;1.00;;;;;;2617989;54;20939;-88
2022/08/24 17:26:49;;;;;;;7.13;6.50;;;31.40;1.00;;;;;;2618058;54;20396;-85
2022/08/24 17:32:37;;;;;;;7.13;6.53;;;31.30;1.00;;;;;;2616678;54;20372;-78
2022/08/24 17:38:27;;;;;;;7.30;6.80;;;31.00;1.00;;;;;;2616570;54;20148;-79
2022/08/24 17:44:19;;;;;;;11.17;7.60;;;30.80;1.00;;;;;;2617050;54;20417;-79
2022/08/24 17:50:09;;;;;;;8.03;7.23;;;30.60;1.00;;;;;;2617639;54;21048;-79
2022/08/24 17:55:57;;;;;;;6.90;6.20;;;30.40;1.00;;;;;;2617662;54;20385;-81
2022/08/24 18:01:46;;;;;;;9.83;7.00;;;30.10;1.00;;;;;;2617539;54;20192;-80
2022/08/24 18:07:34;;;;;;;7.60;7.10;;;29.80;1.00;;;;;;2617583;54;20364;-80
2022/08/24 18:13:22;;;;;;;7.90;7.20;;;29.60;1.00;;;;;;2617870;54;20389;-80
2022/08/24 18:19:12;;;;;;;10.57;7.40;;;29.20;1.00;;;;;;2617545;54;20709;-79
2022/08/24 18:24:59;;;;;;;7.93;7.23;;;29.00;1.00;;;;;;2617752;54;20416;-81
2022/08/24 18:28:01;;;;;;;7.53;6.93;;;28.90;1.00;;;;;;2617337;39;20933;-79
2022/08/24 18:30:28;;;;;;;8.97;8.00;;;28.80;1.00;;;;;;2617608;54;20180;-80
2022/08/24 18:36:16;;;;;;;7.63;6.90;;;28.50;1.00;;;;;;2617589;54;20386;-80
2022/08/24 18:42:07;;;;;;;10.10;6.93;;;28.40;1.00;;;;;;2617509;54;20230;-80
2022/08/24 18:47:55;;;;;;;9.00;7.87;;;28.10;1.00;;;;;;2617490;54;20391;-80
2022/08/24 18:53:43;;;;;;;10.10;7.80;;;27.80;1.00;;;;;;2617963;54;20144;-79
2022/08/24 18:59:31;;;;;;;8.90;8.10;;;27.60;1.00;;;;;;2618210;39;20534;-80
2022/08/24 19:05:23;;;;;;;8.00;7.20;;;27.30;2.60;;;;;;2617562;54;20409;-80
2022/08/24 19:11:12;;;;;;;7.20;6.70;;;27.20;1.90;;;;;;2617552;54;20398;-79
2022/08/24 19:16:59;;;;;;;7.67;7.07;;;27.10;2.00;;;;;;2617536;54;20397;-80
2022/08/24 19:22:47;;;;;;;8.13;7.33;;;26.90;2.70;;;;;;2617477;54;20134;-79
2022/08/24 19:32:37;;;;;;;7.40;6.80;;;26.50;5.20;;;;;;2617061;54;20975;-80
2022/08/24 19:38:29;;;;;;;7.60;7.10;;;26.40;5.50;;;;;;2617676;39;20807;-80
2022/08/24 19:50:25;;;;;;;8.10;7.50;;;25.50;11.20;;;;;;2617269;54;20380;-80
2022/08/24 19:56:13;;;;;;;10.37;7.53;;;25.20;14.70;;;;;;2617546;39;20763;-80
2022/08/24 20:02:00;;;;;;;9.23;7.30;;;24.90;18.40;;;;;;2617277;54;20118;-79
2022/08/24 20:07:51;;;;;;;10.47;9.40;;;24.70;19.70;;;;;;2617341;54;20749;-79
2022/08/24 20:13:38;;;;;;;7.90;7.30;;;24.40;20.30;;;;;;2620604;54;20396;-87
2022/08/24 20:19:26;;;;;;;9.30;8.50;;;24.30;24.90;;;;;;2620768;54;20126;-86
2022/08/24 20:25:15;;;;;;;9.57;8.77;;;24.10;24.50;;;;;;2621417;54;20410;-87
2022/08/24 20:28:02;;;;;;;8.83;8.10;;;24.10;26.60;;;;;;2620848;47;21031;-86
2022/08/24 20:30:29;;;;;;;8.60;7.97;;;24.00;29.00;;;;;;2620537;54;20405;-85
2022/08/24 20:43:01;;;;;;;7.70;7.17;;;23.80;30.70;;;;;;2620274;54;20384;-87
2022/08/24 20:48:49;;;;;;;7.50;6.83;;;23.90;29.40;;;;;;2621830;54;20119;-84
2022/08/24 20:54:37;;;;;;;8.13;7.00;;;24.40;16.30;;;;;;2619181;54;20406;-87
2022/08/24 21:00:26;;;;;;;7.10;6.60;;;24.70;13.70;;;;;;2619706;54;20381;-86
2022/08/24 21:06:17;;;;;;;8.67;7.60;;;24.40;14.60;;;;;;2619497;31;20911;-87
2022/08/24 21:12:06;;;;;;;7.90;7.30;;;24.00;18.90;;;;;;2619345;54;20416;-87
2022/08/24 21:17:53;;;;;;;8.03;7.23;;;23.60;21.00;;;;;;2620656;54;20476;-86
2022/08/24 21:23:42;;;;;;;11.40;8.07;;;23.40;23.50;;;;;;2622306;46;20220;-85
2022/08/24 21:39:00;;;;;;;7.97;7.33;;;23.10;30.00;;;;;;2621532;54;20372;-87
2022/08/24 21:44:48;;;;;;;8.50;7.80;;;22.90;30.70;;;;;;2622191;54;20400;-87
2022/08/24 21:50:35;;;;;;;10.37;8.60;;;22.80;34.90;;;;;;2622401;54;20119;-86
2022/08/24 21:56:26;;;;;;;9.93;8.10;;;22.70;35.50;;;;;;2622025;54;20142;-88
2022/08/24 22:02:14;;;;;;;9.57;8.23;;;22.60;41.30;;;;;;2622445;54;20395;-86
2022/08/24 22:08:02;;;;;;;8.60;7.90;;;22.40;42.30;;;;;;2621659;54;20634;-87
2022/08/24 22:13:51;;;;;;;9.83;9.00;;;22.20;50.00;;;;;;2621691;54;20416;-86
2022/08/24 22:19:38;;;;;;;9.33;8.60;;;22.20;46.00;;;;;;2617512;54;21012;-80
2022/08/24 22:25:28;;;;;;;9.50;8.20;;;22.10;44.40;;;;;;2617104;54;20407;-79
2022/08/24 22:31:43;;;;;;;8.63;7.63;;;22.10;45.60;;;;;;2615966;54;20448;-79
2022/08/24 22:37:30;;;;;;;9.63;8.87;;;21.90;49.70;;;;;;2615792;54;20474;-80
2022/08/24 22:43:18;;;;;;;9.00;8.20;;;21.90;49.70;;;;;;2616996;31;20581;-80
2022/08/24 22:49:06;;;;;;;8.00;7.20;;;21.90;49.10;;;;;;2616328;39;20626;-79
2022/08/24 22:54:55;;;;;;;8.50;7.80;;;21.90;40.70;;;;;;2615853;54;20399;-80
2022/08/24 23:00:43;;;;;;;13.40;9.97;;;22.00;36.90;;;;;;2615700;54;20491;-80
2022/08/24 23:06:33;;;;;;;9.47;8.40;;;22.30;28.80;;;;;;2617025;54;20386;-80
2022/08/24 23:12:23;;;;;;;8.13;7.43;;;22.30;28.30;;;;;;2617012;54;20411;-80
2022/08/24 23:24:17;;;;;;;8.20;7.60;;;22.00;28.60;;;;;;2622086;54;20384;-84
2022/08/24 23:33:27;;;;;;;10.23;8.20;;;21.50;44.10;;;;;;2621215;54;20462;-86
2022/08/24 23:39:17;;;;;;;12.80;7.87;;;21.30;53.00;;;;;;2621024;39;20539;-84
2022/08/24 23:45:06;;;;;;;8.77;8.07;;;21.30;56.50;;;;;;2620621;54;20407;-86
2022/08/24 23:50:55;;;;;;;9.27;8.30;;;21.10;59.50;;;;;;2621007;39;20754;-87
2022/08/24 23:56:45;;;;;;;8.70;8.00;;;20.90;70.30;;;;;;2621184;54;20381;-85
